Riverside Park, Ohio
Current Conditions -  °F | °C
As of 7:53 PM on Friday 28 Nov 2014 (Local Time) from KPHD Reporting Station
Few Clouds Few Clouds  
Wind Chill: 28°   Ceiling: Unl
Heat Index: 28°   Visibility: 10mi
Dew Point: 19°   Wind: 3mph
Humidity: 69%   Direction: 150°SSE
Pressure: 30.21"   Gusts: NA
Location:  40.3767°N, 81.2875°W
Report Text: KPHD 290053Z AUTO 15003KT 10SM FEW120 M02/M07 A3021 RMK AO2 SLP243 T10221072
Loading
Personal Weather Stations






























Interactive Weather Map New forecast layout! Learn more

10-Day Weather Forecast

Advertisements
Track Severe Weather on mobile